createdAt,value
2022-09-25T00:00:03.927Z,8.59
2022-09-25T00:01:06.524Z,8.60
2022-09-25T00:02:09.130Z,8.58
2022-09-25T00:03:11.649Z,8.53
2022-09-25T00:04:14.159Z,8.54
2022-09-25T00:05:16.611Z,8.59
2022-09-25T00:06:19.390Z,8.56
2022-09-25T00:07:21.888Z,8.61
2022-09-25T00:08:24.344Z,8.59
2022-09-25T00:09:26.853Z,8.61
2022-09-25T00:10:29.412Z,8.58
2022-09-25T00:11:31.894Z,8.65
2022-09-25T00:12:34.360Z,8.67
2022-09-25T00:13:37.128Z,8.60
2022-09-25T00:14:39.600Z,8.63
2022-09-25T00:15:42.081Z,8.60
2022-09-25T00:16:44.911Z,8.52
2022-09-25T00:17:47.509Z,8.54
2022-09-25T00:18:49.991Z,8.53
2022-09-25T00:19:52.539Z,8.52
2022-09-25T00:20:55.226Z,8.57
2022-09-25T00:21:57.888Z,8.55
2022-09-25T00:23:00.557Z,8.52
2022-09-25T00:24:03.124Z,8.58
2022-09-25T00:25:05.674Z,8.59
2022-09-25T00:26:08.879Z,8.60
2022-09-25T00:27:11.350Z,8.54
2022-09-25T00:28:18.114Z,8.56
2022-09-25T00:29:18.217Z,8.56
2022-09-25T00:30:20.864Z,8.60
2022-09-25T00:31:23.378Z,8.62
2022-09-25T00:32:25.890Z,8.58
2022-09-25T00:33:28.340Z,8.59
2022-09-25T00:34:30.819Z,8.54
2022-09-25T00:35:33.320Z,8.61
2022-09-25T00:36:35.772Z,8.61
2022-09-25T00:37:38.220Z,8.59
2022-09-25T00:38:40.692Z,8.63
2022-09-25T00:39:43.170Z,8.65
2022-09-25T00:40:45.930Z,8.59
2022-09-25T00:41:48.622Z,8.57
2022-09-25T00:42:51.100Z,8.53
2022-09-25T00:43:53.553Z,8.59
2022-09-25T00:44:56.004Z,8.65
2022-09-25T00:45:58.799Z,8.62
2022-09-25T00:47:01.215Z,8.59
2022-09-25T00:48:03.676Z,8.60
2022-09-25T00:49:06.115Z,8.57
2022-09-25T00:50:08.963Z,8.56
2022-09-25T00:51:11.817Z,8.56
2022-09-25T00:52:14.284Z,8.62
2022-09-25T00:53:16.776Z,8.63
2022-09-25T00:54:19.275Z,8.61
2022-09-25T00:55:21.713Z,8.63
2022-09-25T00:56:24.416Z,8.65
2022-09-25T00:57:26.855Z,8.62
2022-09-25T00:58:29.297Z,8.65
2022-09-25T00:59:31.825Z,8.67
2022-09-25T01:00:34.274Z,8.71
2022-09-25T01:01:36.810Z,8.68
2022-09-25T01:02:39.301Z,8.72
2022-09-25T01:03:41.823Z,8.68
2022-09-25T01:04:44.298Z,8.63
2022-09-25T01:05:46.837Z,8.69
2022-09-25T01:06:49.536Z,8.66
2022-09-25T01:07:52.021Z,8.63
2022-09-25T01:08:54.462Z,8.59
2022-09-25T01:09:56.913Z,8.57
2022-09-25T01:10:59.984Z,8.61
2022-09-25T01:12:02.482Z,8.62
2022-09-25T01:13:04.958Z,8.59
2022-09-25T01:14:07.401Z,8.70
2022-09-25T01:15:09.846Z,8.61
2022-09-25T01:16:12.722Z,8.61
2022-09-25T01:17:15.381Z,8.69
2022-09-25T01:18:17.867Z,8.67
2022-09-25T01:19:20.318Z,8.68
2022-09-25T01:20:22.858Z,8.66
2022-09-25T01:21:26.639Z,8.68
2022-09-25T01:22:29.150Z,8.68
2022-09-25T01:23:31.595Z,8.74
2022-09-25T01:24:34.069Z,8.75
2022-09-25T01:25:36.500Z,8.70
2022-09-25T01:26:39.080Z,8.68
2022-09-25T01:27:41.564Z,8.64
2022-09-25T01:28:43.994Z,8.74
2022-09-25T01:29:46.446Z,8.70
2022-09-25T01:30:49.492Z,8.71
2022-09-25T01:31:51.969Z,8.68
2022-09-25T01:32:54.433Z,8.69
2022-09-25T01:33:56.870Z,8.67
2022-09-25T01:34:59.339Z,8.65
2022-09-25T01:36:01.837Z,8.58
2022-09-25T01:37:04.275Z,8.68
2022-09-25T01:38:07.087Z,8.67
2022-09-25T01:39:09.518Z,8.68
2022-09-25T01:40:12.827Z,8.65
2022-09-25T01:41:15.423Z,8.58
2022-09-25T01:42:17.869Z,8.60
2022-09-25T01:43:20.339Z,8.66
2022-09-25T01:44:22.772Z,8.67
2022-09-25T01:45:25.214Z,8.63
2022-09-25T01:46:27.933Z,8.63
2022-09-25T01:47:30.695Z,8.66
2022-09-25T01:48:33.363Z,8.60
2022-09-25T01:49:35.798Z,8.58
2022-09-25T01:50:38.529Z,8.63
2022-09-25T01:51:40.967Z,8.63
2022-09-25T01:52:43.451Z,8.66
2022-09-25T01:53:47.962Z,8.64
2022-09-25T01:54:50.272Z,8.56
2022-09-25T01:55:52.826Z,8.68
2022-09-25T01:56:55.489Z,8.64
2022-09-25T01:57:57.942Z,8.66
2022-09-25T01:59:00.454Z,8.76
2022-09-25T02:00:03.239Z,8.68
2022-09-25T02:01:05.734Z,8.60
2022-09-25T02:02:08.291Z,8.61
2022-09-25T02:03:10.817Z,8.57
2022-09-25T02:04:13.361Z,8.61
2022-09-25T02:05:15.917Z,8.66
2022-09-25T02:06:18.552Z,8.70
2022-09-25T02:07:20.992Z,8.69
2022-09-25T02:08:23.424Z,8.65
2022-09-25T02:09:25.893Z,8.65
2022-09-25T02:10:28.641Z,8.62
2022-09-25T02:11:31.377Z,8.58
2022-09-25T02:12:33.811Z,8.72
2022-09-25T02:13:36.250Z,8.67
2022-09-25T02:14:38.728Z,8.63
2022-09-25T02:15:41.403Z,8.58
2022-09-25T02:16:44.134Z,8.60
2022-09-25T02:17:46.780Z,8.56
2022-09-25T02:18:49.219Z,8.56
2022-09-25T02:19:51.716Z,8.70
2022-09-25T02:20:54.497Z,8.61
2022-09-25T02:21:56.937Z,8.64
2022-09-25T02:22:59.395Z,8.64
2022-09-25T02:24:01.833Z,8.58
2022-09-25T02:25:04.298Z,8.58
2022-09-25T02:26:06.834Z,8.55
2022-09-25T02:27:09.582Z,8.58
2022-09-25T02:28:12.031Z,8.51
2022-09-25T02:29:14.466Z,8.58
2022-09-25T02:30:17.548Z,8.67
2022-09-25T02:31:20.007Z,8.66
2022-09-25T02:32:22.527Z,8.58
2022-09-25T02:33:24.967Z,8.56
2022-09-25T02:34:27.404Z,8.65
2022-09-25T02:35:29.944Z,8.67
2022-09-25T02:36:32.591Z,8.66
2022-09-25T02:37:35.036Z,8.60
2022-09-25T02:38:37.467Z,8.60
2022-09-25T02:39:39.905Z,8.54
2022-09-25T02:40:42.815Z,8.64
2022-09-25T02:41:45.386Z,8.65
2022-09-25T02:42:47.821Z,8.64
2022-09-25T02:43:50.253Z,8.68
2022-09-25T02:44:52.691Z,8.65
2022-09-25T02:45:55.268Z,8.64
2022-09-25T02:46:58.058Z,8.61
2022-09-25T02:48:00.523Z,8.61
2022-09-25T02:49:03.119Z,8.71
2022-09-25T02:50:05.755Z,8.67
2022-09-25T02:51:08.663Z,8.73
2022-09-25T02:52:11.142Z,8.68
2022-09-25T02:53:13.581Z,8.65
2022-09-25T02:54:16.065Z,8.63
2022-09-25T02:55:18.503Z,8.63
2022-09-25T02:56:21.237Z,8.63
2022-09-25T02:57:23.673Z,8.65
2022-09-25T02:58:26.108Z,8.67
2022-09-25T02:59:28.538Z,8.69
2022-09-25T03:00:30.987Z,8.70
2022-09-25T03:01:33.516Z,8.73
2022-09-25T03:02:36.081Z,8.71
2022-09-25T03:03:38.638Z,8.71
2022-09-25T03:04:41.070Z,8.70
2022-09-25T03:05:43.520Z,8.81
2022-09-25T03:06:46.100Z,8.72
2022-09-25T03:07:48.590Z,8.72
2022-09-25T03:08:51.039Z,8.73
2022-09-25T03:09:53.480Z,8.70
2022-09-25T03:10:56.128Z,8.73
2022-09-25T03:11:58.652Z,8.74
2022-09-25T03:13:01.162Z,8.79
2022-09-25T03:14:03.697Z,8.76
2022-09-25T03:15:06.518Z,8.79
2022-09-25T03:16:09.828Z,8.83
2022-09-25T03:17:12.419Z,8.81
2022-09-25T03:18:14.856Z,8.79
2022-09-25T03:19:17.296Z,8.79
2022-09-25T03:20:20.765Z,8.78
2022-09-25T03:21:23.231Z,8.76
2022-09-25T03:22:25.821Z,8.81
2022-09-25T03:23:28.256Z,8.75
2022-09-25T03:24:30.744Z,8.78
2022-09-25T03:25:33.586Z,8.88
2022-09-25T03:26:36.431Z,8.84
2022-09-25T03:27:39.366Z,8.83
2022-09-25T03:28:41.816Z,8.81
2022-09-25T03:29:44.251Z,8.80
2022-09-25T03:30:46.855Z,8.83
2022-09-25T03:31:49.354Z,8.83
2022-09-25T03:32:51.810Z,8.87
2022-09-25T03:33:54.256Z,8.88
2022-09-25T03:34:56.697Z,8.89
2022-09-25T03:35:59.136Z,8.90
2022-09-25T03:37:01.881Z,8.89
2022-09-25T03:38:04.379Z,8.90
2022-09-25T03:39:06.878Z,8.83
2022-09-25T03:40:09.966Z,8.89
2022-09-25T03:41:12.872Z,8.89
2022-09-25T03:42:15.354Z,8.88
2022-09-25T03:43:17.823Z,8.90
2022-09-25T03:44:20.266Z,8.90
2022-09-25T03:45:22.706Z,8.95
2022-09-25T03:46:25.440Z,8.91
2022-09-25T03:47:27.996Z,8.91
2022-09-25T03:48:30.538Z,8.90
2022-09-25T03:49:33.116Z,8.89
2022-09-25T03:50:35.659Z,8.90
2022-09-25T03:51:38.107Z,8.91
2022-09-25T03:52:40.547Z,9.02
2022-09-25T03:53:43.363Z,8.99
2022-09-25T03:54:46.088Z,8.95
2022-09-25T03:55:48.538Z,8.97
2022-09-25T03:56:51.077Z,9.00
2022-09-25T03:57:53.518Z,9.00
2022-09-25T03:58:56.021Z,9.04
2022-09-25T03:59:58.463Z,8.96
2022-09-25T04:01:01.150Z,8.97
2022-09-25T04:02:04.173Z,9.05
2022-09-25T04:03:06.696Z,9.07
2022-09-25T04:04:09.177Z,8.95
2022-09-25T04:05:11.638Z,8.94
2022-09-25T04:06:14.595Z,8.91
2022-09-25T04:07:17.035Z,9.02
2022-09-25T04:08:19.480Z,9.01
2022-09-25T04:09:21.947Z,9.01
2022-09-25T04:10:24.535Z,9.02
2022-09-25T04:11:27.012Z,9.03
2022-09-25T04:12:29.453Z,8.98
2022-09-25T04:13:31.914Z,9.03
2022-09-25T04:14:34.578Z,9.07
2022-09-25T04:15:37.016Z,9.02
2022-09-25T04:16:39.725Z,9.02
2022-09-25T04:17:42.311Z,9.08
2022-09-25T04:18:44.754Z,9.02
2022-09-25T04:19:47.231Z,9.01
2022-09-25T04:20:49.975Z,9.04
2022-09-25T04:21:53.074Z,9.14
2022-09-25T04:22:55.521Z,9.13
2022-09-25T04:23:58.069Z,9.09
2022-09-25T04:25:00.545Z,9.08
2022-09-25T04:26:03.083Z,9.06
2022-09-25T04:27:05.734Z,9.14
2022-09-25T04:28:08.176Z,9.14
2022-09-25T04:29:10.616Z,9.21
2022-09-25T04:30:13.788Z,9.25
2022-09-25T04:31:16.291Z,9.22
2022-09-25T04:32:18.913Z,9.21
2022-09-25T04:33:21.477Z,9.20
2022-09-25T04:34:23.945Z,9.25
2022-09-25T04:35:26.418Z,9.29
2022-09-25T04:36:28.856Z,9.19
2022-09-25T04:37:31.300Z,9.12
2022-09-25T04:38:33.758Z,9.17
2022-09-25T04:39:36.203Z,9.20
2022-09-25T04:40:39.031Z,9.26
2022-09-25T04:41:41.849Z,9.30
2022-09-25T04:42:44.600Z,9.26
2022-09-25T04:43:47.046Z,9.27
2022-09-25T04:44:49.482Z,9.30
2022-09-25T04:45:52.047Z,9.37
2022-09-25T04:46:54.957Z,9.35
2022-09-25T04:47:57.601Z,9.33
2022-09-25T04:49:00.054Z,9.35
2022-09-25T04:50:02.604Z,9.38
2022-09-25T04:51:05.109Z,9.41
2022-09-25T04:52:07.600Z,9.44
2022-09-25T04:53:10.038Z,9.45
2022-09-25T04:54:12.670Z,9.41
2022-09-25T04:55:15.341Z,9.43
2022-09-25T04:56:19.714Z,9.43
2022-09-25T04:57:39.147Z,9.37
2022-09-25T04:58:26.549Z,9.38
2022-09-25T04:59:28.990Z,9.31
2022-09-25T05:00:31.468Z,9.34
2022-09-25T05:01:34.563Z,9.41
2022-09-25T05:02:37.237Z,9.39
2022-09-25T05:03:40.092Z,9.46
2022-09-25T05:04:42.840Z,9.44
2022-09-25T05:05:45.305Z,9.46
2022-09-25T05:06:48.119Z,9.51
2022-09-25T05:07:50.561Z,9.51
2022-09-25T05:08:53.008Z,9.50
2022-09-25T05:09:55.443Z,9.52
2022-09-25T05:10:57.888Z,9.60
2022-09-25T05:12:00.398Z,9.65
2022-09-25T05:13:02.839Z,9.68
2022-09-25T05:14:05.329Z,9.64
2022-09-25T05:15:07.812Z,9.64
2022-09-25T05:16:10.933Z,9.65
2022-09-25T05:17:13.523Z,9.68
2022-09-25T05:18:15.970Z,9.69
2022-09-25T05:19:18.408Z,9.68
2022-09-25T05:20:21.563Z,9.75
2022-09-25T05:21:24.013Z,9.82
2022-09-25T05:22:26.599Z,9.76
2022-09-25T05:23:29.044Z,9.74
2022-09-25T05:24:31.826Z,9.79
2022-09-25T05:25:34.323Z,9.85
2022-09-25T05:26:36.963Z,9.89
2022-09-25T05:27:39.699Z,9.89
2022-09-25T05:28:42.146Z,9.95
2022-09-25T05:29:44.688Z,9.92
2022-09-25T05:30:47.334Z,9.99
2022-09-25T05:31:50.135Z,9.95
2022-09-25T05:32:52.656Z,9.92
2022-09-25T05:33:55.108Z,10.02
2022-09-25T05:34:57.550Z,10.04
2022-09-25T05:35:59.992Z,10.05
2022-09-25T05:37:02.457Z,10.08
2022-09-25T05:38:04.935Z,10.09
2022-09-25T05:39:12.171Z,10.10
2022-09-25T05:40:12.914Z,10.16
2022-09-25T05:41:15.614Z,10.17
2022-09-25T05:42:18.063Z,10.22
2022-09-25T05:43:20.533Z,10.29
2022-09-25T05:44:22.965Z,10.27
2022-09-25T05:45:25.430Z,10.29
2022-09-25T05:46:28.356Z,10.33
2022-09-25T05:47:31.020Z,10.37
2022-09-25T05:48:33.514Z,10.39
2022-09-25T05:49:35.945Z,10.39
2022-09-25T05:50:38.771Z,10.44
2022-09-25T05:51:41.213Z,10.47
2022-09-25T05:52:43.655Z,10.45
2022-09-25T05:53:46.158Z,10.41
2022-09-25T05:54:48.591Z,10.45
2022-09-25T05:55:51.047Z,10.49
2022-09-25T05:56:53.829Z,10.59
2022-09-25T05:57:56.332Z,10.58
2022-09-25T05:58:58.918Z,10.66
2022-09-25T06:00:01.349Z,10.71
2022-09-25T06:01:03.807Z,10.71
2022-09-25T06:02:06.298Z,10.73
2022-09-25T06:03:08.988Z,10.67
2022-09-25T06:04:11.586Z,10.70
2022-09-25T06:05:14.170Z,10.72
2022-09-25T06:06:16.942Z,10.70
2022-09-25T06:07:19.373Z,10.71
2022-09-25T06:08:21.831Z,10.75
2022-09-25T06:09:24.330Z,10.77
2022-09-25T06:10:26.910Z,10.74
2022-09-25T06:11:29.322Z,10.69
2022-09-25T06:12:31.877Z,10.75
2022-09-25T06:13:34.311Z,10.82
2022-09-25T06:14:36.881Z,10.77
2022-09-25T06:15:39.400Z,10.80
2022-09-25T06:16:42.307Z,10.84
2022-09-25T06:17:44.737Z,10.86
2022-09-25T06:18:47.193Z,10.81
2022-09-25T06:19:49.651Z,10.86
2022-09-25T06:20:52.416Z,10.85
2022-09-25T06:21:55.045Z,10.87
2022-09-25T06:22:57.483Z,10.92
2022-09-25T06:23:59.918Z,10.88
2022-09-25T06:25:02.401Z,10.96
2022-09-25T06:26:05.044Z,11.00
2022-09-25T06:27:07.476Z,10.97
2022-09-25T06:28:09.913Z,10.98
2022-09-25T06:29:12.357Z,10.99
2022-09-25T06:30:16.161Z,10.92
2022-09-25T06:31:18.623Z,11.00
2022-09-25T06:32:21.159Z,11.01
2022-09-25T06:33:23.590Z,11.06
2022-09-25T06:34:26.051Z,11.11
2022-09-25T06:35:28.529Z,11.17
2022-09-25T06:36:31.179Z,11.20
2022-09-25T06:37:33.615Z,11.25
2022-09-25T06:38:36.065Z,11.23
2022-09-25T06:39:38.616Z,11.28
2022-09-25T06:40:41.910Z,11.37
2022-09-25T06:41:44.548Z,11.45
2022-09-25T06:42:47.297Z,11.48
2022-09-25T06:43:49.730Z,11.52
2022-09-25T06:44:52.171Z,11.55
2022-09-25T06:45:54.720Z,11.57
2022-09-25T06:46:57.553Z,11.60
2022-09-25T06:47:59.992Z,11.67
2022-09-25T06:49:02.428Z,11.67
2022-09-25T06:50:05.310Z,11.67
2022-09-25T06:51:07.774Z,11.70
2022-09-25T06:52:10.238Z,11.77
2022-09-25T06:53:12.669Z,11.82
2022-09-25T06:54:15.110Z,11.89
2022-09-25T06:55:17.563Z,11.99
2022-09-25T06:56:20.335Z,11.93
2022-09-25T06:57:22.783Z,12.01
2022-09-25T06:58:25.219Z,11.97
2022-09-25T06:59:27.650Z,11.95
2022-09-25T07:00:30.394Z,11.99
2022-09-25T07:01:35.187Z,12.03
2022-09-25T07:02:37.954Z,12.13
2022-09-25T07:03:40.423Z,12.19
2022-09-25T07:04:42.852Z,12.20
2022-09-25T07:05:45.294Z,12.28
2022-09-25T07:06:47.973Z,12.22
2022-09-25T07:07:50.604Z,12.25
2022-09-25T07:08:53.244Z,12.31
2022-09-25T07:09:55.707Z,12.42
2022-09-25T07:10:58.360Z,12.53
2022-09-25T07:12:00.946Z,12.66
2022-09-25T07:13:03.418Z,12.70
2022-09-25T07:14:05.883Z,12.78
2022-09-25T07:15:08.317Z,12.85
2022-09-25T07:16:11.537Z,12.96
2022-09-25T07:17:14.058Z,13.06
2022-09-25T07:18:16.526Z,13.13
2022-09-25T07:19:18.964Z,13.24
2022-09-25T07:20:21.704Z,13.38
2022-09-25T07:21:24.139Z,13.47
2022-09-25T07:22:26.622Z,13.53
2022-09-25T07:23:29.052Z,13.66
2022-09-25T07:24:31.485Z,13.75
2022-09-25T07:25:33.928Z,13.89
2022-09-25T07:26:40.970Z,14.06
2022-09-25T07:27:40.880Z,14.24
2022-09-25T07:28:43.311Z,14.44
2022-09-25T07:29:45.749Z,14.63
2022-09-25T07:30:48.473Z,14.75
2022-09-25T07:31:50.976Z,14.79
2022-09-25T07:32:59.209Z,14.91
2022-09-25T07:33:57.860Z,15.09
2022-09-25T07:35:00.295Z,15.17
2022-09-25T07:36:03.036Z,15.32
2022-09-25T07:37:05.581Z,15.30
2022-09-25T07:38:08.318Z,15.36
2022-09-25T07:39:13.716Z,15.40
2022-09-25T07:40:16.604Z,15.33
2022-09-25T07:41:19.199Z,15.40
2022-09-25T07:42:21.710Z,15.50
2022-09-25T07:43:24.179Z,15.52
2022-09-25T07:44:29.416Z,15.62
2022-09-25T07:45:31.063Z,15.77
2022-09-25T07:46:33.760Z,15.81
2022-09-25T07:47:36.335Z,15.84
2022-09-25T07:48:38.930Z,15.88
2022-09-25T07:49:41.381Z,15.91
2022-09-25T07:50:44.002Z,15.97
2022-09-25T07:51:46.443Z,16.01
2022-09-25T07:52:48.877Z,15.93
2022-09-25T07:53:51.331Z,15.86
2022-09-25T07:54:53.793Z,15.86
2022-09-25T07:55:56.220Z,15.98
2022-09-25T07:56:58.850Z,16.11
2022-09-25T07:58:01.316Z,16.29
2022-09-25T07:59:03.797Z,16.45
2022-09-25T08:00:06.567Z,16.38
2022-09-25T08:01:09.024Z,16.51
2022-09-25T08:02:11.921Z,16.56
2022-09-25T08:03:14.511Z,16.53
2022-09-25T08:04:17.425Z,16.55
2022-09-25T08:05:19.871Z,16.44
2022-09-25T08:06:22.510Z,16.21
2022-09-25T08:07:25.005Z,16.08
2022-09-25T08:08:27.459Z,16.00
2022-09-25T08:09:29.933Z,15.99
2022-09-25T08:10:32.653Z,15.98
2022-09-25T08:11:35.363Z,16.08
2022-09-25T08:12:37.834Z,16.08
2022-09-25T08:13:40.278Z,16.09
2022-09-25T08:14:42.807Z,16.08
2022-09-25T08:15:45.266Z,16.09
2022-09-25T08:16:48.313Z,16.11
2022-09-25T08:17:50.767Z,16.16
2022-09-25T08:18:53.261Z,16.17
2022-09-25T08:19:55.850Z,16.21
2022-09-25T08:20:58.726Z,16.21
2022-09-25T08:22:01.172Z,16.20
2022-09-25T08:23:03.619Z,16.25
2022-09-25T08:24:06.059Z,16.38
2022-09-25T08:25:08.551Z,16.48
2022-09-25T08:26:11.091Z,16.57
2022-09-25T08:27:13.529Z,16.66
2022-09-25T08:28:16.001Z,16.75
2022-09-25T08:29:18.736Z,16.73
2022-09-25T08:30:21.390Z,16.74
2022-09-25T08:31:23.969Z,16.82
2022-09-25T08:32:26.517Z,16.85
2022-09-25T08:33:28.982Z,16.82
2022-09-25T08:34:47.236Z,16.78
2022-09-25T08:35:35.856Z,16.85
2022-09-25T08:36:38.399Z,16.89
2022-09-25T08:37:40.869Z,16.84
2022-09-25T08:38:43.308Z,16.76
2022-09-25T08:39:45.777Z,16.56
2022-09-25T08:40:48.608Z,16.53
2022-09-25T08:41:51.633Z,16.46
2022-09-25T08:42:54.075Z,16.43
2022-09-25T08:43:56.555Z,16.40
2022-09-25T08:45:19.934Z,16.32
2022-09-25T08:46:03.449Z,16.28
2022-09-25T08:47:05.935Z,16.22
2022-09-25T08:48:08.466Z,16.08
2022-09-25T08:49:10.952Z,16.03
2022-09-25T08:50:14.408Z,16.04
2022-09-25T08:51:16.988Z,16.06
2022-09-25T08:52:19.429Z,16.01
2022-09-25T08:54:25.332Z,15.90
2022-09-25T08:55:27.769Z,15.99
2022-09-25T08:56:30.452Z,16.23
2022-09-25T08:57:32.892Z,16.31
2022-09-25T08:58:35.353Z,16.42
2022-09-25T08:59:37.800Z,16.58
2022-09-25T09:00:40.492Z,16.74
2022-09-25T09:01:43.031Z,16.86
2022-09-25T09:02:45.871Z,16.89
2022-09-25T09:03:48.460Z,16.83
2022-09-25T09:04:51.140Z,16.77
2022-09-25T09:05:53.577Z,16.77
2022-09-25T09:07:21.948Z,16.74
2022-09-25T09:08:00.979Z,16.73
2022-09-25T09:09:03.426Z,16.74
2022-09-25T09:10:06.319Z,16.86
2022-09-25T09:11:13.290Z,16.96
2022-09-25T09:12:13.672Z,17.06
2022-09-25T09:13:16.118Z,17.23
2022-09-25T09:14:18.667Z,17.37
2022-09-25T09:15:21.120Z,17.41
2022-09-25T09:16:23.894Z,17.60
2022-09-25T09:17:26.369Z,17.81
2022-09-25T09:18:28.830Z,17.87
2022-09-25T09:19:31.270Z,17.92
2022-09-25T09:20:34.219Z,17.89
2022-09-25T09:21:37.203Z,17.80
2022-09-25T09:22:39.895Z,17.65
2022-09-25T09:23:42.352Z,17.51
2022-09-25T09:24:44.827Z,17.16
2022-09-25T09:25:47.423Z,17.01
2022-09-25T09:26:49.955Z,16.96
2022-09-25T09:27:52.424Z,17.02
2022-09-25T09:28:54.968Z,17.03
2022-09-25T09:30:00.369Z,17.07
2022-09-25T09:31:01.942Z,17.01
2022-09-25T09:32:04.556Z,16.99
2022-09-25T09:33:07.132Z,16.79
2022-09-25T09:34:09.649Z,16.83
2022-09-25T09:35:12.188Z,16.91
2022-09-25T09:36:15.237Z,17.01
2022-09-25T09:37:17.709Z,17.10
2022-09-25T09:38:20.179Z,17.18
2022-09-25T09:39:22.621Z,17.20
2022-09-25T09:40:25.379Z,17.28
2022-09-25T09:41:27.913Z,17.06
2022-09-25T09:42:30.355Z,17.00
2022-09-25T09:43:34.030Z,16.85
2022-09-25T09:44:36.472Z,16.73
2022-09-25T09:45:38.905Z,16.54
2022-09-25T09:46:41.619Z,16.45
2022-09-25T09:47:44.318Z,16.24
2022-09-25T09:48:46.782Z,16.16
2022-09-25T09:49:49.214Z,16.04
2022-09-25T09:50:53.157Z,15.98
2022-09-25T09:51:55.993Z,15.92
2022-09-25T09:52:58.443Z,15.76
2022-09-25T09:54:00.967Z,15.70
2022-09-25T09:55:03.399Z,15.68
2022-09-25T09:56:09.142Z,15.66
2022-09-25T09:57:10.606Z,15.54
2022-09-25T09:58:13.042Z,15.44
2022-09-25T09:59:15.507Z,15.41
2022-09-25T10:00:18.771Z,15.43
2022-09-25T10:01:40.347Z,15.47
2022-09-25T10:02:25.712Z,15.48
2022-09-25T10:03:28.498Z,15.51
2022-09-25T10:04:31.037Z,15.52
2022-09-25T10:05:33.468Z,15.63
2022-09-25T10:06:36.316Z,15.68
2022-09-25T10:07:38.756Z,15.80
2022-09-25T10:08:41.186Z,15.98
2022-09-25T10:09:43.668Z,16.24
2022-09-25T10:10:46.397Z,16.50
2022-09-25T10:11:48.842Z,16.76
2022-09-25T10:12:51.285Z,16.95
2022-09-25T10:13:53.741Z,17.04
2022-09-25T10:14:56.228Z,17.06
2022-09-25T10:17:01.476Z,17.19
2022-09-25T10:18:03.917Z,17.28
2022-09-25T10:19:06.372Z,17.22
2022-09-25T10:20:09.452Z,17.16
2022-09-25T10:21:11.911Z,16.93
2022-09-25T10:22:16.635Z,16.80
2022-09-25T10:23:18.817Z,16.63
2022-09-25T10:24:21.272Z,16.58
2022-09-25T10:25:23.791Z,16.54
2022-09-25T10:26:26.352Z,16.47
2022-09-25T10:27:28.811Z,16.42
2022-09-25T10:28:31.251Z,16.39
2022-09-25T10:29:33.698Z,16.47
2022-09-25T10:30:36.509Z,16.55
2022-09-25T10:31:38.988Z,16.56
2022-09-25T10:32:41.417Z,16.51
2022-09-25T10:33:43.885Z,16.43
2022-09-25T10:34:46.340Z,16.32
2022-09-25T10:35:48.940Z,16.39
2022-09-25T10:36:51.583Z,16.42
2022-09-25T10:37:54.030Z,16.55
2022-09-25T10:39:12.993Z,16.66
2022-09-25T10:40:00.863Z,16.85
2022-09-25T10:41:03.393Z,16.94
2022-09-25T10:42:06.156Z,17.03
2022-09-25T10:43:08.800Z,17.20
2022-09-25T10:44:11.331Z,17.35
2022-09-25T10:45:14.138Z,17.38
2022-09-25T10:46:17.633Z,17.44
2022-09-25T10:47:20.414Z,17.63
2022-09-25T10:48:22.999Z,17.88
2022-09-25T10:49:25.447Z,18.12
2022-09-25T10:50:28.115Z,18.37
2022-09-25T10:51:30.594Z,18.50
2022-09-25T10:52:33.408Z,18.64
2022-09-25T10:53:35.893Z,18.77
2022-09-25T10:54:44.431Z,18.64
2022-09-25T10:55:42.696Z,18.71
2022-09-25T10:56:45.388Z,18.50
2022-09-25T10:57:47.842Z,18.49
2022-09-25T10:58:50.286Z,18.36
2022-09-25T10:59:52.754Z,18.36
2022-09-25T11:00:55.394Z,18.29
2022-09-25T11:01:57.956Z,18.20
2022-09-25T11:03:00.961Z,18.17
2022-09-25T11:04:03.410Z,18.08
2022-09-25T11:05:05.865Z,18.00
2022-09-25T11:06:08.416Z,17.97
2022-09-25T11:07:10.921Z,18.02
2022-09-25T11:08:13.374Z,18.12
2022-09-25T11:09:15.827Z,18.24
2022-09-25T11:10:18.372Z,18.30
2022-09-25T11:11:20.814Z,18.36
2022-09-25T11:12:23.733Z,18.39
2022-09-25T11:13:26.214Z,18.36
2022-09-25T11:14:28.636Z,18.35
2022-09-25T11:15:31.434Z,18.43
2022-09-25T11:16:34.196Z,18.48
2022-09-25T11:17:36.752Z,18.61
2022-09-25T11:18:39.215Z,18.67
2022-09-25T11:19:41.682Z,18.74
2022-09-25T11:20:44.224Z,18.78
2022-09-25T11:21:46.674Z,18.88
2022-09-25T11:22:49.299Z,18.83
2022-09-25T11:23:51.942Z,18.86
2022-09-25T11:25:00.155Z,18.91
2022-09-25T11:25:58.755Z,18.95
2022-09-25T11:27:01.512Z,19.09
2022-09-25T11:28:04.018Z,19.22
2022-09-25T11:29:06.448Z,19.38
2022-09-25T11:30:09.264Z,19.57
2022-09-25T11:31:11.800Z,19.80
2022-09-25T11:32:14.578Z,19.95
2022-09-25T11:33:17.064Z,20.04
2022-09-25T11:34:19.523Z,20.03
2022-09-25T11:35:21.977Z,19.94
2022-09-25T11:36:24.612Z,19.85
2022-09-25T11:37:27.058Z,19.86
2022-09-25T11:38:29.553Z,19.70
2022-09-25T11:39:31.989Z,19.63
2022-09-25T11:40:34.650Z,19.50
2022-09-25T11:41:37.635Z,19.41
2022-09-25T11:42:40.071Z,19.37
2022-09-25T11:43:42.573Z,19.35
2022-09-25T11:44:45.114Z,19.43
2022-09-25T11:45:47.683Z,19.14
2022-09-25T11:46:50.658Z,19.20
2022-09-25T11:47:53.097Z,19.24
2022-09-25T11:48:55.576Z,19.20
2022-09-25T11:49:58.118Z,19.18
2022-09-25T11:51:00.767Z,19.21
2022-09-25T11:52:03.218Z,19.29
2022-09-25T11:53:05.656Z,19.36
2022-09-25T11:54:25.701Z,19.43
2022-09-25T11:55:12.482Z,19.48
2022-09-25T11:56:15.944Z,19.56
2022-09-25T11:57:18.389Z,19.66
2022-09-25T11:58:20.845Z,19.75
2022-09-25T11:59:23.328Z,19.75
2022-09-25T12:00:25.967Z,19.75
2022-09-25T12:01:28.437Z,19.77
2022-09-25T12:02:31.721Z,19.73
2022-09-25T12:03:34.322Z,19.62
2022-09-25T12:04:41.254Z,19.62
2022-09-25T12:05:41.173Z,19.69
2022-09-25T12:06:43.810Z,19.74
2022-09-25T12:07:46.256Z,19.76
2022-09-25T12:08:48.705Z,19.62
2022-09-25T12:09:51.186Z,19.63
2022-09-25T12:10:53.931Z,19.63
2022-09-25T12:11:56.401Z,19.52
2022-09-25T12:12:58.864Z,19.47
2022-09-25T12:14:01.337Z,19.43
2022-09-25T12:15:03.922Z,19.46
2022-09-25T12:16:06.699Z,19.48
2022-09-25T12:17:09.219Z,19.51
2022-09-25T12:18:11.686Z,19.40
2022-09-25T12:19:14.124Z,19.37
2022-09-25T12:20:17.038Z,19.36
2022-09-25T12:21:19.691Z,19.35
2022-09-25T12:22:22.336Z,19.30
2022-09-25T12:23:24.782Z,19.24
2022-09-25T12:24:32.656Z,19.36
2022-09-25T12:25:31.618Z,19.37
2022-09-25T12:26:34.250Z,19.37
2022-09-25T12:27:36.699Z,19.48
2022-09-25T12:28:39.130Z,19.53
2022-09-25T12:29:41.568Z,19.60
2022-09-25T12:30:44.375Z,19.62
2022-09-25T12:31:46.881Z,19.52
2022-09-25T12:32:49.318Z,19.46
2022-09-25T12:33:51.770Z,19.49
2022-09-25T12:34:54.409Z,19.45
2022-09-25T12:35:56.887Z,19.42
2022-09-25T12:36:59.465Z,19.40
2022-09-25T12:38:01.899Z,19.38
2022-09-25T12:39:04.366Z,19.40
2022-09-25T12:40:07.123Z,19.37
2022-09-25T12:41:09.796Z,19.39
2022-09-25T12:42:12.439Z,19.42
2022-09-25T12:43:14.890Z,19.47
2022-09-25T12:44:17.330Z,19.46
2022-09-25T12:45:19.772Z,19.47
2022-09-25T12:46:22.575Z,19.47
2022-09-25T12:47:25.194Z,19.50
2022-09-25T12:48:27.698Z,19.60
2022-09-25T12:49:30.224Z,19.69
2022-09-25T12:50:32.861Z,19.70
2022-09-25T12:51:35.338Z,19.70
2022-09-25T12:52:37.777Z,19.74
2022-09-25T12:53:40.296Z,19.80
2022-09-25T12:54:42.759Z,19.91
2022-09-25T12:55:45.279Z,19.88
2022-09-25T12:56:47.962Z,19.77
2022-09-25T12:57:50.396Z,19.72
2022-09-25T12:58:53.035Z,19.43
2022-09-25T12:59:55.487Z,19.26
2022-09-25T13:00:58.081Z,19.21
2022-09-25T13:02:00.725Z,19.20
2022-09-25T13:03:03.414Z,19.26
2022-09-25T13:04:05.864Z,19.28
2022-09-25T13:05:08.300Z,19.30
2022-09-25T13:06:11.036Z,19.34
2022-09-25T13:07:13.559Z,19.27
2022-09-25T13:08:15.997Z,19.08
2022-09-25T13:09:18.428Z,18.87
2022-09-25T13:10:21.185Z,18.82
2022-09-25T13:11:23.617Z,18.78
2022-09-25T13:12:26.279Z,18.82
2022-09-25T13:13:28.826Z,18.88
2022-09-25T13:14:31.274Z,18.94
2022-09-25T13:15:33.770Z,19.02
2022-09-25T13:16:36.551Z,19.09
2022-09-25T13:17:39.089Z,19.16
2022-09-25T13:18:41.553Z,19.16
2022-09-25T13:19:44.010Z,19.24
2022-09-25T13:20:46.553Z,19.37
2022-09-25T13:21:48.987Z,19.45
2022-09-25T13:22:51.490Z,19.40
2022-09-25T13:23:53.958Z,19.41
2022-09-25T13:24:56.401Z,19.39
2022-09-25T13:25:58.840Z,19.32
2022-09-25T13:27:01.374Z,19.20
2022-09-25T13:28:03.841Z,19.01
2022-09-25T13:29:06.299Z,18.70
2022-09-25T13:30:09.771Z,18.36
2022-09-25T13:31:12.311Z,18.21
2022-09-25T13:32:15.048Z,18.03
2022-09-25T13:33:17.533Z,17.83
2022-09-25T13:34:19.972Z,17.69
2022-09-25T13:35:22.418Z,17.62
2022-09-25T13:36:25.064Z,17.47
2022-09-25T13:37:27.507Z,17.33
2022-09-25T13:38:29.978Z,17.19
2022-09-25T13:39:32.413Z,17.12